IWK weather

Iwakuni Marine Corps Air Station
Iwakuni, Yamaguchi Prefecture, Japan

Public forecast

Using degrees Celsius for public forecast. Weather courtesy of forecast.io.

Current aviation weather report (METAR) for Iwakuni Marine Corps Air Station

Retrieved 2019/10/22 09:55 UTC (39 minutes ago):

RJOI 220955Z 02005KT 9999 FEW030 FEW050 21/16 A2995 RMK SLP141 T02110161

Aviation forecast (TAF) for Iwakuni Marine Corps Air Station

Forecast is more than 12 hours old.

Retrieved 2019/07/03 05:09 UTC (4 months ago):

TAF RJOI 030500Z 0305/0405 VRB06KT 4800 -SHRA SCT008 BKN015 OVC040 621909 QNH2975INS BECMG 0314/0315 02009KT 9000 BR BKN015 OVC050 622305 QNH2976INS TEMPO 0315/0319 8000 -SHRA VCTS BKN015CB BECMG 0319/0320 VRB06KT 6000 BR VCSH FEW005 BKN055 QNH2970INS BECMG 0401/0402 VRB06KT 9999 NSW FEW015 QNH2971INS T24/0308Z TN20/0319Z